LFLL/LYS METAR and TAF weather

Enter ICAO airport designator
Station Type Date Time Source
LFLL METAR 2021/10/24 21:30 UTC NOAA

LFLL 242130Z 11002KT CAVOK 11/07 Q1023 NOSIG


Station Type Date Time Source
LFLL Decoded METAR 2021/10/24 21:30 UTC NOAA

Lyon / Satolas, France (LFLL) 45-44N 005-05E 240M
Oct 24, 2021 - 05:30 PM EDT / 2021.10.24 2130 UTC
Wind: from the ESE (110 degrees) at 2 MPH (2 KT):0
Visibility: greater than 7 mile(s):0
Temperature: 51 F (11 C)
Dew Point: 44 F (7 C)
Relative Humidity: 76%
Pressure (altimeter): 30.21 in. Hg (1023 hPa)
ob: LFLL 242130Z 11002KT CAVOK 11/07 Q1023 NOSIG
cycle: 21

Station Type Date Time Source
LFLL TAF 2021/10/24 18:21 UTC NOAA

TAF LFLL 241700Z 2418/2524 VRB03KT CAVOK PROB30
TEMPO 2504/2507 4000 BR

Example: see airport list